sensor_id;sensor_type;location;lat;lon;timestamp;P1;durP1;ratioP1;P2;durP2;ratioP2
69627;SDS011;56850;51.984;5.088;2022-08-19T00:01:32;10.65;;;8.60;;
69627;SDS011;56850;51.984;5.088;2022-08-19T00:04:04;9.32;;;8.10;;
69627;SDS011;56850;51.984;5.088;2022-08-19T00:06:35;9.38;;;8.40;;
69627;SDS011;56850;51.984;5.088;2022-08-19T00:09:04;11.57;;;10.47;;
69627;SDS011;56850;51.984;5.088;2022-08-19T00:11:33;12.65;;;10.35;;
69627;SDS011;56850;51.984;5.088;2022-08-19T00:14:02;12.05;;;10.80;;
69627;SDS011;56850;51.984;5.088;2022-08-19T00:16:30;12.13;;;10.55;;
69627;SDS011;56850;51.984;5.088;2022-08-19T00:18:57;12.55;;;11.18;;
69627;SDS011;56850;51.984;5.088;2022-08-19T00:21:25;13.07;;;11.33;;
69627;SDS011;56850;51.984;5.088;2022-08-19T00:23:53;13.45;;;12.15;;
69627;SDS011;56850;51.984;5.088;2022-08-19T00:26:24;14.30;;;12.80;;
69627;SDS011;56850;51.984;5.088;2022-08-19T00:28:52;16.15;;;14.45;;
69627;SDS011;56850;51.984;5.088;2022-08-19T00:31:19;17.85;;;15.95;;
69627;SDS011;56850;51.984;5.088;2022-08-19T00:33:47;18.43;;;16.50;;
69627;SDS011;56850;51.984;5.088;2022-08-19T00:36:16;19.30;;;16.90;;
69627;SDS011;56850;51.984;5.088;2022-08-19T00:38:44;20.27;;;17.20;;
69627;SDS011;56850;51.984;5.088;2022-08-19T00:41:14;19.55;;;16.70;;
69627;SDS011;56850;51.984;5.088;2022-08-19T00:43:49;19.15;;;17.15;;
69627;SDS011;56850;51.984;5.088;2022-08-19T00:46:27;19.47;;;17.37;;
69627;SDS011;56850;51.984;5.088;2022-08-19T00:48:54;20.63;;;17.05;;
69627;SDS011;56850;51.984;5.088;2022-08-19T00:51:24;21.45;;;17.95;;
69627;SDS011;56850;51.984;5.088;2022-08-19T00:53:54;20.25;;;16.50;;
69627;SDS011;56850;51.984;5.088;2022-08-19T00:56:23;19.98;;;16.83;;
69627;SDS011;56850;51.984;5.088;2022-08-19T00:58:53;20.50;;;16.93;;
69627;SDS011;56850;51.984;5.088;2022-08-19T01:01:22;22.05;;;17.45;;
69627;SDS011;56850;51.984;5.088;2022-08-19T01:03:49;20.63;;;17.58;;
69627;SDS011;56850;51.984;5.088;2022-08-19T01:06:24;18.65;;;15.88;;
69627;SDS011;56850;51.984;5.088;2022-08-19T01:08:52;19.27;;;16.50;;
69627;SDS011;56850;51.984;5.088;2022-08-19T01:11:20;20.53;;;16.77;;
69627;SDS011;56850;51.984;5.088;2022-08-19T01:13:47;19.60;;;16.58;;
69627;SDS011;56850;51.984;5.088;2022-08-19T01:16:16;19.33;;;17.10;;
69627;SDS011;56850;51.984;5.088;2022-08-19T01:18:45;20.75;;;17.73;;
69627;SDS011;56850;51.984;5.088;2022-08-19T01:24:05;21.67;;;18.60;;
69627;SDS011;56850;51.984;5.088;2022-08-19T01:26:34;21.17;;;17.42;;
69627;SDS011;56850;51.984;5.088;2022-08-19T01:29:07;23.30;;;18.67;;
69627;SDS011;56850;51.984;5.088;2022-08-19T01:31:35;23.52;;;18.90;;
69627;SDS011;56850;51.984;5.088;2022-08-19T01:34:03;24.88;;;19.88;;
69627;SDS011;56850;51.984;5.088;2022-08-19T01:38:58;23.92;;;18.98;;
69627;SDS011;56850;51.984;5.088;2022-08-19T01:41:26;22.63;;;19.77;;
69627;SDS011;56850;51.984;5.088;2022-08-19T01:43:54;23.33;;;18.98;;
69627;SDS011;56850;51.984;5.088;2022-08-19T01:46:42;22.10;;;18.98;;
69627;SDS011;56850;51.984;5.088;2022-08-19T01:49:10;23.03;;;19.17;;
69627;SDS011;56850;51.984;5.088;2022-08-19T01:51:37;24.38;;;19.40;;
69627;SDS011;56850;51.984;5.088;2022-08-19T01:54:05;26.15;;;20.50;;
69627;SDS011;56850;51.984;5.088;2022-08-19T01:56:33;24.23;;;20.10;;
69627;SDS011;56850;51.984;5.088;2022-08-19T01:59:02;23.67;;;20.15;;
69627;SDS011;56850;51.984;5.088;2022-08-19T02:01:34;27.37;;;21.07;;
69627;SDS011;56850;51.984;5.088;2022-08-19T02:04:02;25.73;;;20.88;;
69627;SDS011;56850;51.984;5.088;2022-08-19T02:06:29;25.88;;;20.65;;
69627;SDS011;56850;51.984;5.088;2022-08-19T02:08:56;23.45;;;19.60;;
69627;SDS011;56850;51.984;5.088;2022-08-19T02:11:24;26.77;;;21.20;;
69627;SDS011;56850;51.984;5.088;2022-08-19T02:13:54;25.30;;;20.23;;
69627;SDS011;56850;51.984;5.088;2022-08-19T02:16:21;26.45;;;20.98;;
69627;SDS011;56850;51.984;5.088;2022-08-19T02:18:49;24.35;;;20.80;;
69627;SDS011;56850;51.984;5.088;2022-08-19T02:21:17;24.50;;;20.52;;
69627;SDS011;56850;51.984;5.088;2022-08-19T02:23:46;24.65;;;20.15;;
69627;SDS011;56850;51.984;5.088;2022-08-19T02:26:13;23.53;;;19.43;;
69627;SDS011;56850;51.984;5.088;2022-08-19T02:28:41;23.92;;;18.92;;
69627;SDS011;56850;51.984;5.088;2022-08-19T02:31:09;24.52;;;19.67;;
69627;SDS011;56850;51.984;5.088;2022-08-19T02:33:38;24.70;;;18.50;;
69627;SDS011;56850;51.984;5.088;2022-08-19T02:36:05;25.10;;;19.23;;
69627;SDS011;56850;51.984;5.088;2022-08-19T02:38:34;24.67;;;18.77;;
69627;SDS011;56850;51.984;5.088;2022-08-19T02:41:03;22.60;;;18.63;;
69627;SDS011;56850;51.984;5.088;2022-08-19T02:43:31;27.20;;;18.90;;
69627;SDS011;56850;51.984;5.088;2022-08-19T02:46:12;22.55;;;17.48;;
69627;SDS011;56850;51.984;5.088;2022-08-19T02:48:51;27.45;;;18.83;;
69627;SDS011;56850;51.984;5.088;2022-08-19T02:51:24;22.83;;;17.40;;
69627;SDS011;56850;51.984;5.088;2022-08-19T02:53:52;22.30;;;17.48;;
69627;SDS011;56850;51.984;5.088;2022-08-19T02:56:20;25.13;;;17.67;;
69627;SDS011;56850;51.984;5.088;2022-08-19T02:58:48;21.73;;;17.05;;
69627;SDS011;56850;51.984;5.088;2022-08-19T03:01:50;24.33;;;18.33;;
69627;SDS011;56850;51.984;5.088;2022-08-19T03:04:13;24.27;;;16.63;;
69627;SDS011;56850;51.984;5.088;2022-08-19T03:06:43;25.67;;;17.48;;
69627;SDS011;56850;51.984;5.088;2022-08-19T03:09:11;24.23;;;18.45;;
69627;SDS011;56850;51.984;5.088;2022-08-19T03:11:39;22.13;;;17.45;;
69627;SDS011;56850;51.984;5.088;2022-08-19T03:14:07;22.33;;;17.85;;
69627;SDS011;56850;51.984;5.088;2022-08-19T03:16:40;23.40;;;18.07;;
69627;SDS011;56850;51.984;5.088;2022-08-19T03:19:12;23.02;;;18.13;;
69627;SDS011;56850;51.984;5.088;2022-08-19T03:21:41;24.02;;;18.08;;
69627;SDS011;56850;51.984;5.088;2022-08-19T03:24:11;21.88;;;17.90;;
69627;SDS011;56850;51.984;5.088;2022-08-19T03:26:43;25.23;;;18.95;;
69627;SDS011;56850;51.984;5.088;2022-08-19T03:29:12;21.20;;;17.87;;
69627;SDS011;56850;51.984;5.088;2022-08-19T03:31:40;25.88;;;19.27;;
69627;SDS011;56850;51.984;5.088;2022-08-19T03:34:19;24.08;;;18.13;;
69627;SDS011;56850;51.984;5.088;2022-08-19T03:36:48;24.90;;;19.00;;
69627;SDS011;56850;51.984;5.088;2022-08-19T03:39:15;25.75;;;18.75;;
69627;SDS011;56850;51.984;5.088;2022-08-19T03:41:43;24.60;;;18.93;;
69627;SDS011;56850;51.984;5.088;2022-08-19T03:44:14;25.30;;;19.63;;
69627;SDS011;56850;51.984;5.088;2022-08-19T03:46:48;25.02;;;18.95;;
69627;SDS011;56850;51.984;5.088;2022-08-19T03:49:17;25.35;;;19.67;;
69627;SDS011;56850;51.984;5.088;2022-08-19T03:51:45;27.70;;;20.17;;
69627;SDS011;56850;51.984;5.088;2022-08-19T03:54:14;30.77;;;20.67;;
69627;SDS011;56850;51.984;5.088;2022-08-19T03:56:44;30.75;;;21.95;;
69627;SDS011;56850;51.984;5.088;2022-08-19T03:59:14;29.55;;;20.90;;
69627;SDS011;56850;51.984;5.088;2022-08-19T04:01:43;29.83;;;21.33;;
69627;SDS011;56850;51.984;5.088;2022-08-19T04:04:10;29.02;;;20.92;;
69627;SDS011;56850;51.984;5.088;2022-08-19T04:06:38;27.00;;;20.63;;
69627;SDS011;56850;51.984;5.088;2022-08-19T04:09:07;30.98;;;22.13;;
69627;SDS011;56850;51.984;5.088;2022-08-19T04:11:36;30.23;;;21.85;;
69627;SDS011;56850;51.984;5.088;2022-08-19T04:14:17;27.08;;;19.90;;
69627;SDS011;56850;51.984;5.088;2022-08-19T04:16:47;27.75;;;21.50;;
69627;SDS011;56850;51.984;5.088;2022-08-19T04:19:15;28.83;;;21.77;;
69627;SDS011;56850;51.984;5.088;2022-08-19T04:21:44;29.05;;;21.00;;
69627;SDS011;56850;51.984;5.088;2022-08-19T04:24:12;26.70;;;20.33;;
69627;SDS011;56850;51.984;5.088;2022-08-19T04:26:40;27.90;;;21.25;;
69627;SDS011;56850;51.984;5.088;2022-08-19T04:29:08;28.38;;;20.80;;
69627;SDS011;56850;51.984;5.088;2022-08-19T04:31:39;27.40;;;21.50;;
69627;SDS011;56850;51.984;5.088;2022-08-19T04:34:07;28.98;;;21.13;;
69627;SDS011;56850;51.984;5.088;2022-08-19T04:36:40;30.38;;;21.90;;
69627;SDS011;56850;51.984;5.088;2022-08-19T04:39:09;30.50;;;21.90;;
69627;SDS011;56850;51.984;5.088;2022-08-19T04:41:38;32.78;;;23.00;;
69627;SDS011;56850;51.984;5.088;2022-08-19T04:44:24;30.80;;;22.63;;
69627;SDS011;56850;51.984;5.088;2022-08-19T04:46:52;33.65;;;23.20;;
69627;SDS011;56850;51.984;5.088;2022-08-19T04:49:20;35.22;;;23.30;;
69627;SDS011;56850;51.984;5.088;2022-08-19T04:51:49;36.10;;;23.58;;
69627;SDS011;56850;51.984;5.088;2022-08-19T04:54:21;38.90;;;24.95;;
69627;SDS011;56850;51.984;5.088;2022-08-19T04:57:05;35.90;;;24.70;;
69627;SDS011;56850;51.984;5.088;2022-08-19T04:59:36;34.42;;;23.85;;
69627;SDS011;56850;51.984;5.088;2022-08-19T05:02:04;36.15;;;25.42;;
69627;SDS011;56850;51.984;5.088;2022-08-19T05:04:34;36.92;;;25.05;;
69627;SDS011;56850;51.984;5.088;2022-08-19T05:07:01;36.55;;;25.08;;
69627;SDS011;56850;51.984;5.088;2022-08-19T05:09:28;35.73;;;24.53;;
69627;SDS011;56850;51.984;5.088;2022-08-19T05:12:16;41.72;;;25.98;;
69627;SDS011;56850;51.984;5.088;2022-08-19T05:14:44;39.47;;;25.45;;
69627;SDS011;56850;51.984;5.088;2022-08-19T05:17:14;42.17;;;25.85;;
69627;SDS011;56850;51.984;5.088;2022-08-19T05:20:01;41.45;;;26.90;;
69627;SDS011;56850;51.984;5.088;2022-08-19T05:22:48;46.53;;;27.33;;
69627;SDS011;56850;51.984;5.088;2022-08-19T05:25:17;45.17;;;28.17;;
69627;SDS011;56850;51.984;5.088;2022-08-19T05:27:46;44.90;;;28.55;;
69627;SDS011;56850;51.984;5.088;2022-08-19T05:30:14;45.03;;;27.85;;
69627;SDS011;56850;51.984;5.088;2022-08-19T05:32:41;51.03;;;29.52;;
69627;SDS011;56850;51.984;5.088;2022-08-19T05:35:08;51.07;;;30.77;;
69627;SDS011;56850;51.984;5.088;2022-08-19T05:37:36;48.25;;;30.83;;
69627;SDS011;56850;51.984;5.088;2022-08-19T05:40:07;53.70;;;31.73;;
69627;SDS011;56850;51.984;5.088;2022-08-19T05:42:35;51.08;;;30.42;;
69627;SDS011;56850;51.984;5.088;2022-08-19T05:45:02;51.10;;;30.02;;
69627;SDS011;56850;51.984;5.088;2022-08-19T05:47:30;57.43;;;32.43;;
69627;SDS011;56850;51.984;5.088;2022-08-19T05:49:58;52.58;;;32.08;;
69627;SDS011;56850;51.984;5.088;2022-08-19T05:52:25;55.45;;;32.40;;
69627;SDS011;56850;51.984;5.088;2022-08-19T05:54:55;53.95;;;31.33;;
69627;SDS011;56850;51.984;5.088;2022-08-19T05:57:23;49.58;;;30.48;;
69627;SDS011;56850;51.984;5.088;2022-08-19T05:59:50;48.40;;;29.37;;
69627;SDS011;56850;51.984;5.088;2022-08-19T06:02:27;57.42;;;31.55;;
69627;SDS011;56850;51.984;5.088;2022-08-19T06:04:59;56.60;;;31.30;;
69627;SDS011;56850;51.984;5.088;2022-08-19T06:07:28;50.65;;;28.77;;
69627;SDS011;56850;51.984;5.088;2022-08-19T06:09:55;52.63;;;29.60;;
69627;SDS011;56850;51.984;5.088;2022-08-19T06:12:30;46.13;;;26.30;;
69627;SDS011;56850;51.984;5.088;2022-08-19T06:15:02;47.17;;;26.65;;
69627;SDS011;56850;51.984;5.088;2022-08-19T06:17:35;49.40;;;27.13;;
69627;SDS011;56850;51.984;5.088;2022-08-19T06:20:07;48.85;;;26.73;;
69627;SDS011;56850;51.984;5.088;2022-08-19T06:22:40;44.17;;;24.75;;
69627;SDS011;56850;51.984;5.088;2022-08-19T06:25:09;47.50;;;26.27;;
69627;SDS011;56850;51.984;5.088;2022-08-19T06:27:37;51.75;;;24.98;;
69627;SDS011;56850;51.984;5.088;2022-08-19T06:30:24;51.78;;;25.58;;
69627;SDS011;56850;51.984;5.088;2022-08-19T06:32:51;50.17;;;26.15;;
69627;SDS011;56850;51.984;5.088;2022-08-19T06:35:18;51.45;;;26.38;;
69627;SDS011;56850;51.984;5.088;2022-08-19T06:37:45;47.93;;;25.40;;
69627;SDS011;56850;51.984;5.088;2022-08-19T06:40:13;44.22;;;25.25;;
69627;SDS011;56850;51.984;5.088;2022-08-19T06:42:40;49.30;;;25.58;;
69627;SDS011;56850;51.984;5.088;2022-08-19T06:45:18;46.08;;;26.05;;
69627;SDS011;56850;51.984;5.088;2022-08-19T06:47:50;44.92;;;25.92;;
69627;SDS011;56850;51.984;5.088;2022-08-19T06:50:20;42.13;;;23.33;;
69627;SDS011;56850;51.984;5.088;2022-08-19T06:52:50;45.03;;;24.83;;
69627;SDS011;56850;51.984;5.088;2022-08-19T06:55:18;51.25;;;26.08;;
69627;SDS011;56850;51.984;5.088;2022-08-19T06:57:45;40.58;;;23.13;;
69627;SDS011;56850;51.984;5.088;2022-08-19T07:00:14;43.25;;;26.30;;
69627;SDS011;56850;51.984;5.088;2022-08-19T07:02:41;38.27;;;22.33;;
69627;SDS011;56850;51.984;5.088;2022-08-19T07:05:21;40.88;;;22.50;;
69627;SDS011;56850;51.984;5.088;2022-08-19T07:07:48;37.40;;;22.70;;
69627;SDS011;56850;51.984;5.088;2022-08-19T07:10:16;43.63;;;24.48;;
69627;SDS011;56850;51.984;5.088;2022-08-19T07:12:43;45.40;;;24.45;;
69627;SDS011;56850;51.984;5.088;2022-08-19T07:15:10;42.30;;;25.40;;
69627;SDS011;56850;51.984;5.088;2022-08-19T07:17:38;41.08;;;24.27;;
69627;SDS011;56850;51.984;5.088;2022-08-19T07:20:07;41.75;;;24.40;;
69627;SDS011;56850;51.984;5.088;2022-08-19T07:22:39;39.22;;;23.40;;
69627;SDS011;56850;51.984;5.088;2022-08-19T07:25:07;43.65;;;25.58;;
69627;SDS011;56850;51.984;5.088;2022-08-19T07:27:35;44.53;;;23.17;;
69627;SDS011;56850;51.984;5.088;2022-08-19T07:30:05;48.13;;;24.38;;
69627;SDS011;56850;51.984;5.088;2022-08-19T07:32:37;42.00;;;24.13;;
69627;SDS011;56850;51.984;5.088;2022-08-19T07:35:04;48.22;;;24.92;;
69627;SDS011;56850;51.984;5.088;2022-08-19T07:37:32;41.90;;;25.45;;
69627;SDS011;56850;51.984;5.088;2022-08-19T07:40:00;34.67;;;22.93;;
69627;SDS011;56850;51.984;5.088;2022-08-19T07:42:27;38.70;;;22.85;;
69627;SDS011;56850;51.984;5.088;2022-08-19T07:44:57;36.17;;;23.73;;
69627;SDS011;56850;51.984;5.088;2022-08-19T07:47:24;37.97;;;24.05;;
69627;SDS011;56850;51.984;5.088;2022-08-19T07:50:12;37.30;;;23.80;;
69627;SDS011;56850;51.984;5.088;2022-08-19T07:52:39;37.73;;;23.43;;
69627;SDS011;56850;51.984;5.088;2022-08-19T07:55:07;42.90;;;23.35;;
69627;SDS011;56850;51.984;5.088;2022-08-19T07:57:55;37.10;;;22.90;;
69627;SDS011;56850;51.984;5.088;2022-08-19T08:00:22;37.08;;;23.38;;
69627;SDS011;56850;51.984;5.088;2022-08-19T08:02:50;36.92;;;23.52;;
69627;SDS011;56850;51.984;5.088;2022-08-19T08:05:21;36.93;;;22.80;;
69627;SDS011;56850;51.984;5.088;2022-08-19T08:08:10;38.63;;;23.42;;
69627;SDS011;56850;51.984;5.088;2022-08-19T08:10:55;34.40;;;22.75;;
69627;SDS011;56850;51.984;5.088;2022-08-19T08:13:23;34.92;;;22.88;;
69627;SDS011;56850;51.984;5.088;2022-08-19T08:15:51;35.72;;;22.63;;
69627;SDS011;56850;51.984;5.088;2022-08-19T08:18:21;31.03;;;21.97;;
69627;SDS011;56850;51.984;5.088;2022-08-19T08:20:55;37.15;;;23.17;;
69627;SDS011;56850;51.984;5.088;2022-08-19T08:23:23;38.00;;;22.23;;
69627;SDS011;56850;51.984;5.088;2022-08-19T08:25:53;32.72;;;21.73;;
69627;SDS011;56850;51.984;5.088;2022-08-19T08:28:21;30.33;;;20.83;;
69627;SDS011;56850;51.984;5.088;2022-08-19T08:30:49;32.20;;;20.77;;
69627;SDS011;56850;51.984;5.088;2022-08-19T08:33:27;35.70;;;20.15;;
69627;SDS011;56850;51.984;5.088;2022-08-19T08:36:01;35.75;;;20.27;;
69627;SDS011;56850;51.984;5.088;2022-08-19T08:38:31;32.00;;;18.98;;
69627;SDS011;56850;51.984;5.088;2022-08-19T08:41:28;28.42;;;18.80;;
69627;SDS011;56850;51.984;5.088;2022-08-19T08:44:00;33.17;;;19.63;;
69627;SDS011;56850;51.984;5.088;2022-08-19T08:46:40;28.23;;;19.15;;
69627;SDS011;56850;51.984;5.088;2022-08-19T08:52:52;33.30;;;21.33;;
69627;SDS011;56850;51.984;5.088;2022-08-19T08:55:14;35.15;;;21.83;;
69627;SDS011;56850;51.984;5.088;2022-08-19T09:00:19;34.15;;;21.23;;
69627;SDS011;56850;51.984;5.088;2022-08-19T09:02:50;36.00;;;23.42;;
69627;SDS011;56850;51.984;5.088;2022-08-19T09:05:18;36.95;;;23.58;;
69627;SDS011;56850;51.984;5.088;2022-08-19T09:08:05;36.33;;;24.38;;
69627;SDS011;56850;51.984;5.088;2022-08-19T09:10:52;39.97;;;23.03;;
69627;SDS011;56850;51.984;5.088;2022-08-19T09:16:09;35.92;;;23.92;;
69627;SDS011;56850;51.984;5.088;2022-08-19T09:18:57;34.50;;;23.58;;
69627;SDS011;56850;51.984;5.088;2022-08-19T09:21:31;42.05;;;25.17;;
69627;SDS011;56850;51.984;5.088;2022-08-19T09:24:00;36.00;;;24.20;;
69627;SDS011;56850;51.984;5.088;2022-08-19T09:26:28;39.80;;;24.92;;
69627;SDS011;56850;51.984;5.088;2022-08-19T09:29:16;37.58;;;24.65;;
69627;SDS011;56850;51.984;5.088;2022-08-19T09:31:43;81.78;;;26.58;;
69627;SDS011;56850;51.984;5.088;2022-08-19T09:34:10;45.38;;;26.52;;
69627;SDS011;56850;51.984;5.088;2022-08-19T09:36:47;49.17;;;25.77;;
69627;SDS011;56850;51.984;5.088;2022-08-19T09:39:21;45.63;;;26.25;;
69627;SDS011;56850;51.984;5.088;2022-08-19T09:41:48;45.08;;;27.17;;
69627;SDS011;56850;51.984;5.088;2022-08-19T09:44:19;45.58;;;26.65;;
69627;SDS011;56850;51.984;5.088;2022-08-19T09:46:52;47.83;;;27.35;;
69627;SDS011;56850;51.984;5.088;2022-08-19T09:49:19;41.53;;;23.97;;
69627;SDS011;56850;51.984;5.088;2022-08-19T09:51:50;43.83;;;26.92;;
69627;SDS011;56850;51.984;5.088;2022-08-19T09:54:18;43.65;;;27.38;;
69627;SDS011;56850;51.984;5.088;2022-08-19T09:56:50;44.88;;;26.00;;
69627;SDS011;56850;51.984;5.088;2022-08-19T09:59:18;44.20;;;25.38;;
69627;SDS011;56850;51.984;5.088;2022-08-19T10:01:45;40.77;;;24.60;;
69627;SDS011;56850;51.984;5.088;2022-08-19T10:04:13;39.28;;;26.10;;
69627;SDS011;56850;51.984;5.088;2022-08-19T10:06:48;47.92;;;25.38;;
69627;SDS011;56850;51.984;5.088;2022-08-19T10:09:20;38.95;;;23.35;;
69627;SDS011;56850;51.984;5.088;2022-08-19T10:12:00;41.38;;;24.40;;
69627;SDS011;56850;51.984;5.088;2022-08-19T10:14:28;34.23;;;23.30;;
69627;SDS011;56850;51.984;5.088;2022-08-19T10:16:55;40.63;;;24.80;;
69627;SDS011;56850;51.984;5.088;2022-08-19T10:19:24;39.40;;;23.48;;
69627;SDS011;56850;51.984;5.088;2022-08-19T10:21:52;36.65;;;23.90;;
69627;SDS011;56850;51.984;5.088;2022-08-19T10:24:25;39.40;;;24.25;;
69627;SDS011;56850;51.984;5.088;2022-08-19T10:26:54;39.30;;;23.17;;
69627;SDS011;56850;51.984;5.088;2022-08-19T10:29:25;38.80;;;23.38;;
69627;SDS011;56850;51.984;5.088;2022-08-19T10:32:01;42.45;;;24.30;;
69627;SDS011;56850;51.984;5.088;2022-08-19T10:34:38;41.03;;;23.45;;
69627;SDS011;56850;51.984;5.088;2022-08-19T10:37:15;46.60;;;25.13;;
69627;SDS011;56850;51.984;5.088;2022-08-19T10:39:49;32.73;;;21.53;;
69627;SDS011;56850;51.984;5.088;2022-08-19T10:42:16;34.85;;;22.50;;
69627;SDS011;56850;51.984;5.088;2022-08-19T10:44:44;30.88;;;20.80;;
69627;SDS011;56850;51.984;5.088;2022-08-19T10:47:17;34.67;;;21.42;;
69627;SDS011;56850;51.984;5.088;2022-08-19T10:49:54;30.67;;;20.10;;
69627;SDS011;56850;51.984;5.088;2022-08-19T10:52:41;35.60;;;23.10;;
69627;SDS011;56850;51.984;5.088;2022-08-19T10:55:17;37.20;;;22.27;;
69627;SDS011;56850;51.984;5.088;2022-08-19T10:58:17;32.25;;;21.75;;
69627;SDS011;56850;51.984;5.088;2022-08-19T11:00:55;33.38;;;21.40;;
69627;SDS011;56850;51.984;5.088;2022-08-19T11:03:25;30.70;;;20.52;;
69627;SDS011;56850;51.984;5.088;2022-08-19T11:05:57;30.23;;;19.17;;
69627;SDS011;56850;51.984;5.088;2022-08-19T11:08:32;28.10;;;18.65;;
69627;SDS011;56850;51.984;5.088;2022-08-19T11:11:01;22.42;;;16.23;;
69627;SDS011;56850;51.984;5.088;2022-08-19T11:13:33;27.00;;;18.52;;
69627;SDS011;56850;51.984;5.088;2022-08-19T11:18:34;24.73;;;17.07;;
69627;SDS011;56850;51.984;5.088;2022-08-19T11:21:06;29.92;;;17.80;;
69627;SDS011;56850;51.984;5.088;2022-08-19T11:23:48;27.10;;;18.98;;
69627;SDS011;56850;51.984;5.088;2022-08-19T11:26:17;25.65;;;17.33;;
69627;SDS011;56850;51.984;5.088;2022-08-19T11:28:45;21.77;;;16.88;;
69627;SDS011;56850;51.984;5.088;2022-08-19T11:31:15;21.90;;;17.13;;
69627;SDS011;56850;51.984;5.088;2022-08-19T11:33:45;24.83;;;17.23;;
69627;SDS011;56850;51.984;5.088;2022-08-19T11:36:13;23.90;;;17.88;;
69627;SDS011;56850;51.984;5.088;2022-08-19T11:38:41;25.05;;;17.58;;
69627;SDS011;56850;51.984;5.088;2022-08-19T11:41:08;24.98;;;16.55;;
69627;SDS011;56850;51.984;5.088;2022-08-19T11:43:36;24.53;;;16.87;;
69627;SDS011;56850;51.984;5.088;2022-08-19T11:46:04;23.85;;;15.70;;
69627;SDS011;56850;51.984;5.088;2022-08-19T11:48:36;25.00;;;16.42;;
69627;SDS011;56850;51.984;5.088;2022-08-19T11:51:05;17.98;;;13.25;;
69627;SDS011;56850;51.984;5.088;2022-08-19T11:53:35;15.32;;;10.23;;
69627;SDS011;56850;51.984;5.088;2022-08-19T11:56:03;14.47;;;9.60;;
69627;SDS011;56850;51.984;5.088;2022-08-19T11:58:31;13.55;;;9.90;;
69627;SDS011;56850;51.984;5.088;2022-08-19T12:00:58;14.20;;;10.52;;
69627;SDS011;56850;51.984;5.088;2022-08-19T12:03:25;12.95;;;9.10;;
69627;SDS011;56850;51.984;5.088;2022-08-19T12:05:52;10.75;;;7.35;;
69627;SDS011;56850;51.984;5.088;2022-08-19T12:08:19;11.63;;;7.23;;
69627;SDS011;56850;51.984;5.088;2022-08-19T12:10:46;8.88;;;6.72;;
69627;SDS011;56850;51.984;5.088;2022-08-19T12:13:14;12.52;;;8.10;;
69627;SDS011;56850;51.984;5.088;2022-08-19T12:15:45;9.27;;;6.82;;
69627;SDS011;56850;51.984;5.088;2022-08-19T12:18:13;8.57;;;6.75;;
69627;SDS011;56850;51.984;5.088;2022-08-19T12:20:42;9.90;;;7.43;;
69627;SDS011;56850;51.984;5.088;2022-08-19T12:23:09;16.00;;;7.22;;
69627;SDS011;56850;51.984;5.088;2022-08-19T12:25:37;12.00;;;8.80;;
69627;SDS011;56850;51.984;5.088;2022-08-19T12:28:14;12.52;;;9.52;;
69627;SDS011;56850;51.984;5.088;2022-08-19T12:30:42;12.00;;;9.23;;
69627;SDS011;56850;51.984;5.088;2022-08-19T12:33:09;18.30;;;8.80;;
69627;SDS011;56850;51.984;5.088;2022-08-19T12:35:39;29.90;;;10.05;;
69627;SDS011;56850;51.984;5.088;2022-08-19T12:38:11;20.20;;;8.60;;
69627;SDS011;56850;51.984;5.088;2022-08-19T12:40:41;20.38;;;8.82;;
69627;SDS011;56850;51.984;5.088;2022-08-19T12:43:11;37.00;;;11.02;;
69627;SDS011;56850;51.984;5.088;2022-08-19T12:45:38;11.07;;;7.40;;
69627;SDS011;56850;51.984;5.088;2022-08-19T12:48:06;28.50;;;9.52;;
69627;SDS011;56850;51.984;5.088;2022-08-19T12:50:53;19.05;;;9.57;;
69627;SDS011;56850;51.984;5.088;2022-08-19T12:53:20;16.58;;;10.30;;
69627;SDS011;56850;51.984;5.088;2022-08-19T12:55:47;21.77;;;10.57;;
69627;SDS011;56850;51.984;5.088;2022-08-19T12:58:14;17.67;;;10.07;;
69627;SDS011;56850;51.984;5.088;2022-08-19T13:00:41;23.35;;;10.70;;
69627;SDS011;56850;51.984;5.088;2022-08-19T13:03:08;22.65;;;8.98;;
69627;SDS011;56850;51.984;5.088;2022-08-19T13:05:34;10.50;;;6.90;;
69627;SDS011;56850;51.984;5.088;2022-08-19T13:08:02;8.55;;;5.72;;
69627;SDS011;56850;51.984;5.088;2022-08-19T13:10:31;8.03;;;4.90;;
69627;SDS011;56850;51.984;5.088;2022-08-19T13:13:04;11.05;;;5.93;;
69627;SDS011;56850;51.984;5.088;2022-08-19T13:15:33;12.98;;;6.45;;
69627;SDS011;56850;51.984;5.088;2022-08-19T13:18:01;9.73;;;5.63;;
69627;SDS011;56850;51.984;5.088;2022-08-19T13:20:28;12.98;;;6.30;;
69627;SDS011;56850;51.984;5.088;2022-08-19T13:22:55;15.33;;;5.93;;
69627;SDS011;56850;51.984;5.088;2022-08-19T13:25:24;18.38;;;6.82;;
69627;SDS011;56850;51.984;5.088;2022-08-19T13:27:51;11.18;;;7.05;;
69627;SDS011;56850;51.984;5.088;2022-08-19T13:30:19;12.68;;;8.05;;
69627;SDS011;56850;51.984;5.088;2022-08-19T13:33:05;21.88;;;9.13;;
69627;SDS011;56850;51.984;5.088;2022-08-19T13:35:38;12.20;;;8.20;;
69627;SDS011;56850;51.984;5.088;2022-08-19T13:38:18;5.82;;;5.10;;
69627;SDS011;56850;51.984;5.088;2022-08-19T13:40:47;6.70;;;5.72;;
69627;SDS011;56850;51.984;5.088;2022-08-19T13:43:16;6.57;;;4.70;;
69627;SDS011;56850;51.984;5.088;2022-08-19T13:45:52;8.43;;;5.28;;
69627;SDS011;56850;51.984;5.088;2022-08-19T13:48:21;6.33;;;4.77;;
69627;SDS011;56850;51.984;5.088;2022-08-19T13:50:49;5.65;;;4.63;;
69627;SDS011;56850;51.984;5.088;2022-08-19T13:53:17;5.75;;;3.92;;
69627;SDS011;56850;51.984;5.088;2022-08-19T13:55:44;4.60;;;4.20;;
69627;SDS011;56850;51.984;5.088;2022-08-19T13:58:11;5.22;;;4.43;;
69627;SDS011;56850;51.984;5.088;2022-08-19T14:00:41;5.00;;;4.50;;
69627;SDS011;56850;51.984;5.088;2022-08-19T14:03:09;4.72;;;4.28;;
69627;SDS011;56850;51.984;5.088;2022-08-19T14:05:37;5.35;;;4.82;;
69627;SDS011;56850;51.984;5.088;2022-08-19T14:08:04;5.45;;;4.95;;
69627;SDS011;56850;51.984;5.088;2022-08-19T14:10:31;6.00;;;5.45;;
69627;SDS011;56850;51.984;5.088;2022-08-19T14:13:01;6.97;;;5.73;;
69627;SDS011;56850;51.984;5.088;2022-08-19T14:15:29;6.88;;;6.13;;
69627;SDS011;56850;51.984;5.088;2022-08-19T14:17:56;6.78;;;6.10;;
69627;SDS011;56850;51.984;5.088;2022-08-19T14:20:23;7.25;;;6.32;;
69627;SDS011;56850;51.984;5.088;2022-08-19T14:22:51;6.95;;;5.15;;
69627;SDS011;56850;51.984;5.088;2022-08-19T14:25:21;5.67;;;4.63;;
69627;SDS011;56850;51.984;5.088;2022-08-19T14:27:50;6.38;;;5.35;;
69627;SDS011;56850;51.984;5.088;2022-08-19T14:30:18;7.40;;;5.75;;
69627;SDS011;56850;51.984;5.088;2022-08-19T14:32:49;6.35;;;5.40;;
69627;SDS011;56850;51.984;5.088;2022-08-19T14:35:15;5.82;;;5.20;;
69627;SDS011;56850;51.984;5.088;2022-08-19T14:37:43;5.67;;;5.07;;
69627;SDS011;56850;51.984;5.088;2022-08-19T14:40:15;6.70;;;5.43;;
69627;SDS011;56850;51.984;5.088;2022-08-19T14:42:47;8.55;;;5.80;;
69627;SDS011;56850;51.984;5.088;2022-08-19T14:45:14;7.65;;;5.75;;
69627;SDS011;56850;51.984;5.088;2022-08-19T14:47:41;8.35;;;6.20;;
69627;SDS011;56850;51.984;5.088;2022-08-19T14:50:11;7.90;;;6.70;;
69627;SDS011;56850;51.984;5.088;2022-08-19T14:52:44;10.68;;;8.02;;
69627;SDS011;56850;51.984;5.088;2022-08-19T14:55:17;9.38;;;7.43;;
69627;SDS011;56850;51.984;5.088;2022-08-19T14:57:44;10.23;;;7.68;;
69627;SDS011;56850;51.984;5.088;2022-08-19T15:00:12;11.95;;;8.65;;
69627;SDS011;56850;51.984;5.088;2022-08-19T15:02:40;11.47;;;8.97;;